createdAt,value
2018-12-09T00:01:33.467Z,82.97
2018-12-09T00:04:01.841Z,85.80
2018-12-09T00:06:30.659Z,80.70
2018-12-09T00:08:59.109Z,79.53
2018-12-09T00:11:27.631Z,74.90
2018-12-09T00:13:56.309Z,73.50
2018-12-09T00:16:24.813Z,67.40
2018-12-09T00:18:53.305Z,64.67
2018-12-09T00:21:21.875Z,64.23
2018-12-09T00:23:50.272Z,78.63
2018-12-09T00:26:18.740Z,82.37
2018-12-09T00:28:47.319Z,85.07
2018-12-09T00:31:16.129Z,86.23
2018-12-09T00:33:44.583Z,79.70
2018-12-09T00:36:13.137Z,80.23
2018-12-09T00:38:41.757Z,82.57
2018-12-09T00:41:10.241Z,86.20
2018-12-09T00:43:38.661Z,96.70
2018-12-09T00:46:07.040Z,81.70
2018-12-09T00:48:35.430Z,94.50
2018-12-09T00:51:03.897Z,92.57
2018-12-09T00:53:32.337Z,106.97
2018-12-09T00:56:00.829Z,102.37
2018-12-09T00:58:29.401Z,99.93
2018-12-09T01:00:57.888Z,94.50
2018-12-09T01:03:26.371Z,96.43
2018-12-09T01:05:55.264Z,96.97
2018-12-09T01:08:23.809Z,94.07
2018-12-09T01:10:52.213Z,101.87
2018-12-09T01:13:20.608Z,102.03
2018-12-09T01:15:48.981Z,99.33
2018-12-09T01:18:17.464Z,96.70
2018-12-09T01:20:46.032Z,96.80
2018-12-09T01:23:14.453Z,102.07
2018-12-09T01:25:42.975Z,104.50
2018-12-09T01:28:11.693Z,108.17
2018-12-09T01:30:40.067Z,106.47
2018-12-09T01:33:09.081Z,104.50
2018-12-09T01:35:37.739Z,107.43
2018-12-09T01:38:06.229Z,141.83
2018-12-09T01:40:36.485Z,110.90
2018-12-09T01:43:05.245Z,104.60
2018-12-09T01:45:34.021Z,97.03
2018-12-09T01:48:02.501Z,97.93
2018-12-09T01:50:30.987Z,100.37
2018-12-09T01:55:59.696Z,106.27
2018-12-09T01:58:28.231Z,101.10
2018-12-09T02:00:57.263Z,114.93
2018-12-09T02:03:25.849Z,110.70
2018-12-09T02:05:54.288Z,116.60
2018-12-09T02:08:22.708Z,117.90
2018-12-09T02:10:51.176Z,117.30
2018-12-09T02:13:19.676Z,105.50
2018-12-09T02:15:48.101Z,104.60
2018-12-09T02:18:16.943Z,109.03
2018-12-09T02:20:45.315Z,94.97
2018-12-09T02:23:14.317Z,112.83
2018-12-09T02:25:42.796Z,111.30
2018-12-09T02:28:11.271Z,133.57
2018-12-09T02:30:39.755Z,133.30
2018-12-09T02:33:08.519Z,125.30
2018-12-09T02:35:40.518Z,130.70
2018-12-09T02:38:08.991Z,138.87
2018-12-09T02:40:37.439Z,137.20
2018-12-09T02:43:05.816Z,135.40
2018-12-09T02:45:34.447Z,140.63
2018-12-09T02:48:02.851Z,130.77
2018-12-09T02:50:31.228Z,134.87
2018-12-09T02:52:59.883Z,126.57
2018-12-09T02:55:28.944Z,127.47
2018-12-09T02:57:57.465Z,118.13
2018-12-09T03:00:26.448Z,125.80
2018-12-09T03:02:54.920Z,122.33
2018-12-09T03:05:23.357Z,114.90
2018-12-09T03:07:51.780Z,124.27
2018-12-09T03:10:20.267Z,122.90
2018-12-09T03:12:48.763Z,123.20
2018-12-09T03:15:17.327Z,118.90
2018-12-09T03:17:46.286Z,129.17
2018-12-09T03:20:14.667Z,132.43
2018-12-09T03:22:43.488Z,123.57
2018-12-09T03:25:12.039Z,117.30
2018-12-09T03:27:40.456Z,117.40
2018-12-09T03:30:09.241Z,117.53
2018-12-09T03:32:37.671Z,106.10
2018-12-09T03:35:07.260Z,97.97
2018-12-09T03:37:35.916Z,105.60
2018-12-09T03:40:05.185Z,103.03
2018-12-09T03:42:33.688Z,108.83
2018-12-09T03:45:02.275Z,114.10
2018-12-09T03:47:30.730Z,122.53
2018-12-09T03:49:59.113Z,125.10
2018-12-09T03:52:28.309Z,118.17
2018-12-09T03:54:56.822Z,121.90
2018-12-09T03:57:25.236Z,125.97
2018-12-09T03:59:53.879Z,123.60
2018-12-09T04:02:22.370Z,127.03
2018-12-09T04:04:50.848Z,132.90
2018-12-09T04:07:19.441Z,133.63
2018-12-09T04:09:47.849Z,124.07
2018-12-09T04:12:16.284Z,120.00
2018-12-09T04:14:44.968Z,98.57
2018-12-09T04:17:13.451Z,112.03
2018-12-09T04:19:41.933Z,120.00
2018-12-09T04:22:10.717Z,138.50
2018-12-09T04:24:39.361Z,123.67
2018-12-09T04:27:08.219Z,125.37
2018-12-09T04:29:36.815Z,109.97
2018-12-09T04:32:05.464Z,108.37
2018-12-09T04:34:33.940Z,110.23
2018-12-09T04:37:02.638Z,108.80
2018-12-09T04:39:31.111Z,106.10
2018-12-09T04:41:59.604Z,113.53
2018-12-09T04:44:28.857Z,110.50
2018-12-09T04:46:57.377Z,105.77
2018-12-09T04:49:26.364Z,112.77
2018-12-09T04:51:56.252Z,118.60
2018-12-09T04:54:25.208Z,103.00
2018-12-09T04:56:53.956Z,116.87
2018-12-09T04:59:22.539Z,116.97
2018-12-09T05:01:51.019Z,113.13
2018-12-09T05:04:19.516Z,109.70
2018-12-09T05:06:48.090Z,116.80
2018-12-09T05:09:16.571Z,107.50
2018-12-09T05:11:44.984Z,107.13
2018-12-09T05:14:13.410Z,138.80
2018-12-09T05:16:41.903Z,110.73
2018-12-09T05:19:10.400Z,126.57
2018-12-09T05:21:39.075Z,124.67
2018-12-09T05:24:07.919Z,124.23
2018-12-09T05:26:36.658Z,123.57
2018-12-09T05:29:05.107Z,122.13
2018-12-09T05:31:33.512Z,162.37
2018-12-09T05:34:01.937Z,124.97
2018-12-09T05:36:30.684Z,118.13
2018-12-09T05:38:59.164Z,122.30
2018-12-09T05:41:27.646Z,116.53
2018-12-09T05:43:56.340Z,113.03
2018-12-09T05:46:24.803Z,117.87
2018-12-09T05:48:53.196Z,124.47
2018-12-09T05:51:21.872Z,115.10
2018-12-09T05:53:50.300Z,102.90
2018-12-09T05:56:18.683Z,105.70
2018-12-09T05:58:47.565Z,108.30
2018-12-09T06:01:16.009Z,122.30
2018-12-09T06:03:44.381Z,128.43
2018-12-09T06:06:12.856Z,110.30
2018-12-09T06:08:41.353Z,116.97
2018-12-09T06:11:09.827Z,106.23
2018-12-09T06:13:38.284Z,109.33
2018-12-09T06:16:06.796Z,109.03
2018-12-09T06:18:35.278Z,113.53
2018-12-09T06:21:03.851Z,118.23
2018-12-09T06:23:32.949Z,122.53
2018-12-09T06:26:01.324Z,163.63
2018-12-09T06:28:29.911Z,149.40
2018-12-09T06:30:58.333Z,143.97
2018-12-09T06:33:26.725Z,158.43
2018-12-09T06:35:55.301Z,189.00
2018-12-09T06:38:23.724Z,159.53
2018-12-09T06:40:52.156Z,115.00
2018-12-09T06:43:20.736Z,127.10
2018-12-09T06:45:49.226Z,147.63
2018-12-09T06:48:17.700Z,122.00
2018-12-09T06:50:46.405Z,123.10
2018-12-09T06:53:14.876Z,124.13
2018-12-09T06:55:43.349Z,114.03
2018-12-09T06:58:11.849Z,119.00
2018-12-09T07:00:40.312Z,116.10
2018-12-09T07:03:08.792Z,117.47
2018-12-09T07:05:37.297Z,118.40
2018-12-09T07:08:05.954Z,111.33
2018-12-09T07:10:34.345Z,115.97
2018-12-09T07:13:03.127Z,120.37
2018-12-09T07:15:31.602Z,117.43
2018-12-09T07:18:00.094Z,121.07
2018-12-09T07:20:28.772Z,115.93
2018-12-09T07:22:57.197Z,112.33
2018-12-09T07:25:25.632Z,114.97
2018-12-09T07:27:54.216Z,116.17
2018-12-09T07:30:22.593Z,120.90
2018-12-09T07:32:51.080Z,117.20
2018-12-09T07:35:19.655Z,147.10
2018-12-09T07:37:48.041Z,129.27
2018-12-09T07:40:16.521Z,193.60
2018-12-09T07:42:45.050Z,201.27
2018-12-09T07:45:13.484Z,203.73
2018-12-09T07:47:41.867Z,174.93
2018-12-09T07:50:10.512Z,226.50
2018-12-09T07:52:39.237Z,248.07
2018-12-09T07:55:07.713Z,226.30
2018-12-09T07:57:36.496Z,257.87
2018-12-09T08:00:07.540Z,237.53
2018-12-09T08:02:36.326Z,241.30
2018-12-09T08:05:05.397Z,235.50
2018-12-09T08:07:33.812Z,251.40
2018-12-09T08:10:02.293Z,257.80
2018-12-09T08:12:30.676Z,270.53
2018-12-09T08:14:59.074Z,276.17
2018-12-09T08:17:27.822Z,266.27
2018-12-09T08:19:56.219Z,269.23
2018-12-09T08:22:24.602Z,271.13
2018-12-09T08:24:53.053Z,223.70
2018-12-09T08:27:21.453Z,141.67
2018-12-09T08:29:49.884Z,156.97
2018-12-09T08:32:18.369Z,126.07
2018-12-09T08:34:46.755Z,114.83
2018-12-09T08:37:15.142Z,130.43
2018-12-09T08:39:43.674Z,127.20
2018-12-09T08:42:12.077Z,125.27
2018-12-09T08:44:40.460Z,115.20
2018-12-09T08:47:08.997Z,115.53
2018-12-09T08:49:37.384Z,107.57
2018-12-09T08:52:05.761Z,102.47
2018-12-09T08:54:34.259Z,99.90
2018-12-09T08:57:02.620Z,98.77
2018-12-09T08:59:31.001Z,103.53
2018-12-09T09:01:59.448Z,85.23
2018-12-09T09:04:27.860Z,96.77
2018-12-09T09:06:56.269Z,87.77
2018-12-09T09:09:25.468Z,86.23
2018-12-09T09:11:53.837Z,92.03
2018-12-09T09:14:22.221Z,99.60
2018-12-09T09:21:35.405Z,87.57
2018-12-09T09:24:03.817Z,81.33
2018-12-09T09:26:32.268Z,78.13
2018-12-09T09:29:01.056Z,78.97
2018-12-09T09:31:29.546Z,74.77
2018-12-09T09:33:58.028Z,82.53
2018-12-09T09:36:26.709Z,87.67
2018-12-09T09:42:21.626Z,120.33
2018-12-09T09:44:50.109Z,85.83
2018-12-09T09:47:18.489Z,74.07
2018-12-09T09:49:47.176Z,65.50
2018-12-09T09:52:15.556Z,71.77
2018-12-09T09:54:44.031Z,71.17
2018-12-09T09:57:12.716Z,61.93
2018-12-09T09:59:41.075Z,58.63
2018-12-09T10:02:09.449Z,58.77
2018-12-09T10:04:38.125Z,55.40
2018-12-09T10:07:06.540Z,72.03
2018-12-09T10:09:34.922Z,66.43
2018-12-09T10:12:03.795Z,71.20
2018-12-09T10:14:32.236Z,74.97
2018-12-09T10:17:00.600Z,74.90
2018-12-09T10:19:29.248Z,82.57
2018-12-09T10:21:57.623Z,65.63
2018-12-09T10:24:26.108Z,48.17
2018-12-09T10:26:54.684Z,56.23
2018-12-09T10:29:23.076Z,70.20
2018-12-09T10:31:52.170Z,61.07
2018-12-09T10:34:20.743Z,56.53
2018-12-09T10:36:49.137Z,64.90
2018-12-09T10:39:17.568Z,70.83
2018-12-09T10:41:46.261Z,58.70
2018-12-09T10:44:14.744Z,54.10
2018-12-09T10:46:43.164Z,74.83
2018-12-09T10:49:11.820Z,76.73
2018-12-09T10:51:40.292Z,61.30
2018-12-09T10:54:08.764Z,83.33
2018-12-09T10:56:37.348Z,86.87
2018-12-09T10:59:05.782Z,71.53
2018-12-09T11:01:39.940Z,77.60
2018-12-09T11:04:08.422Z,72.17
2018-12-09T11:06:37.001Z,63.60
2018-12-09T11:09:06.930Z,66.17
2018-12-09T11:11:35.453Z,74.60
2018-12-09T11:14:03.877Z,61.47
2018-12-09T11:16:32.317Z,54.77
2018-12-09T11:19:00.788Z,59.17
2018-12-09T11:21:30.829Z,57.13
2018-12-09T11:23:59.748Z,61.37
2018-12-09T11:26:28.194Z,63.10
2018-12-09T11:28:56.561Z,71.27
2018-12-09T11:31:25.142Z,91.17
2018-12-09T11:33:53.656Z,108.40
2018-12-09T11:36:22.141Z,85.20
2018-12-09T11:38:50.689Z,79.37
2018-12-09T11:41:19.790Z,54.93
2018-12-09T11:43:52.905Z,70.27
2018-12-09T11:46:21.463Z,71.67
2018-12-09T11:48:49.837Z,67.20
2018-12-09T11:51:18.385Z,73.20
2018-12-09T11:53:46.788Z,84.00
2018-12-09T11:56:15.285Z,103.57
2018-12-09T11:58:43.769Z,160.70
2018-12-09T12:01:12.140Z,98.60
2018-12-09T12:03:40.617Z,69.13
2018-12-09T12:06:09.414Z,65.13
2018-12-09T12:08:37.897Z,70.87
2018-12-09T12:11:06.325Z,78.30
2018-12-09T12:13:34.777Z,90.20
2018-12-09T12:16:03.227Z,81.67
2018-12-09T12:18:31.650Z,95.80
2018-12-09T12:21:00.264Z,77.47
2018-12-09T12:23:28.673Z,58.37
2018-12-09T12:25:57.361Z,61.40
2018-12-09T12:28:25.851Z,55.63
2018-12-09T12:30:54.388Z,50.43
2018-12-09T12:33:23.108Z,56.90
2018-12-09T12:35:51.793Z,55.07
2018-12-09T12:38:21.344Z,52.13
2018-12-09T12:40:49.984Z,36.93
2018-12-09T12:43:18.473Z,44.87
2018-12-09T12:45:46.940Z,45.50
2018-12-09T12:48:15.420Z,46.07
2018-12-09T12:50:44.007Z,39.83
2018-12-09T12:53:12.433Z,43.13
2018-12-09T12:55:40.807Z,38.50
2018-12-09T12:58:09.343Z,38.27
2018-12-09T13:00:37.924Z,42.80
2018-12-09T13:03:06.322Z,36.47
2018-12-09T13:05:34.888Z,33.83
2018-12-09T13:08:03.377Z,36.57
2018-12-09T13:10:32.876Z,40.73
2018-12-09T13:13:01.468Z,39.03
2018-12-09T13:15:29.944Z,36.87
2018-12-09T13:17:58.321Z,34.90
2018-12-09T13:20:26.804Z,38.43
2018-12-09T13:22:55.288Z,38.30
2018-12-09T13:25:23.703Z,47.73
2018-12-09T13:27:52.147Z,40.47
2018-12-09T13:30:20.621Z,39.67
2018-12-09T13:32:49.009Z,42.33
2018-12-09T13:35:17.589Z,124.07
2018-12-09T13:37:46.061Z,79.33
2018-12-09T14:09:29.279Z,87.63
2018-12-09T14:16:45.355Z,77.47
2018-12-09T14:19:13.728Z,135.07
2018-12-09T14:21:42.373Z,91.10
2018-12-09T14:24:11.016Z,102.20
2018-12-09T14:26:39.465Z,90.23
2018-12-09T14:29:07.879Z,55.40
2018-12-09T14:52:27.504Z,95.20
2018-12-09T14:54:55.965Z,158.20
2018-12-09T14:57:24.349Z,238.30
2018-12-09T14:59:53.033Z,238.73
2018-12-09T15:02:21.447Z,205.30
2018-12-09T15:04:49.845Z,178.60
2018-12-09T15:07:18.472Z,156.97
2018-12-09T15:09:47.553Z,167.53
2018-12-09T15:12:16.293Z,200.33
2018-12-09T15:14:44.837Z,204.80
2018-12-09T15:17:13.252Z,264.27
2018-12-09T15:19:41.683Z,310.37
2018-12-09T15:22:10.152Z,315.00
2018-12-09T15:24:41.604Z,298.77
2018-12-09T15:27:09.189Z,253.80
2018-12-09T15:29:37.873Z,136.03
2018-12-09T15:32:06.350Z,136.73
2018-12-09T15:34:34.833Z,106.00
2018-12-09T15:37:03.620Z,86.73
2018-12-09T15:39:32.095Z,80.33
2018-12-09T15:42:00.521Z,78.23
2018-12-09T15:44:29.075Z,74.57
2018-12-09T15:46:57.441Z,76.07
2018-12-09T15:49:25.857Z,70.13
2018-12-09T15:51:54.448Z,72.33
2018-12-09T15:54:23.089Z,83.70
2018-12-09T15:56:52.224Z,73.50
2018-12-09T15:59:20.998Z,146.90
2018-12-09T16:01:49.705Z,152.80
2018-12-09T16:04:18.078Z,152.47
2018-12-09T16:06:46.716Z,146.97
2018-12-09T16:09:15.117Z,172.40
2018-12-09T16:11:43.585Z,179.17
2018-12-09T16:14:12.156Z,132.63
2018-12-09T16:16:40.636Z,144.93
2018-12-09T16:19:09.125Z,113.80
2018-12-09T16:21:37.604Z,118.53
2018-12-09T16:24:05.984Z,137.63
2018-12-09T16:26:34.455Z,177.60
2018-12-09T16:29:03.045Z,143.13
2018-12-09T16:31:31.524Z,291.50
2018-12-09T16:34:00.015Z,196.57
2018-12-09T16:36:28.696Z,189.77
2018-12-09T16:38:57.080Z,252.57
2018-12-09T16:41:25.449Z,323.00
2018-12-09T16:43:53.919Z,285.03
2018-12-09T16:46:22.410Z,260.43
2018-12-09T16:48:50.808Z,227.67
2018-12-09T16:51:19.459Z,211.97
2018-12-09T16:53:47.858Z,307.83
2018-12-09T17:02:22.305Z,365.43
2018-12-09T17:07:53.911Z,232.40
2018-12-09T17:10:22.397Z,202.00
2018-12-09T17:12:50.994Z,192.47
2018-12-09T17:15:19.555Z,178.20
2018-12-09T17:17:47.949Z,159.50
2018-12-09T17:20:16.424Z,166.53
2018-12-09T17:22:45.856Z,172.07
2018-12-09T17:25:14.244Z,198.47
2018-12-09T17:27:42.617Z,212.40
2018-12-09T17:30:11.080Z,213.57
2018-12-09T17:32:39.545Z,204.70
2018-12-09T17:35:08.025Z,181.03
2018-12-09T17:37:36.707Z,180.30
2018-12-09T17:40:06.592Z,172.47
2018-12-09T17:42:34.992Z,170.57
2018-12-09T17:45:03.828Z,162.47
2018-12-09T17:47:32.296Z,156.30
2018-12-09T17:50:00.785Z,146.57
2018-12-09T17:52:29.552Z,130.23
2018-12-09T17:54:57.985Z,190.43
2018-12-09T17:57:26.358Z,166.73
2018-12-09T17:59:54.896Z,173.60
2018-12-09T18:02:23.381Z,289.90
2018-12-09T18:04:51.837Z,471.80
2018-12-09T18:07:20.340Z,448.10
2018-12-09T18:09:48.829Z,178.57
2018-12-09T18:12:17.323Z,104.53
2018-12-09T18:14:45.894Z,98.87
2018-12-09T18:17:14.322Z,90.67
2018-12-09T18:19:42.746Z,102.77
2018-12-09T18:22:11.340Z,113.83
2018-12-09T18:24:39.717Z,117.20
2018-12-09T18:27:08.196Z,101.20
2018-12-09T18:29:36.977Z,128.80
2018-12-09T18:32:05.659Z,116.20
2018-12-09T18:34:34.055Z,105.13
2018-12-09T18:37:03.150Z,97.63
2018-12-09T18:39:31.616Z,95.97
2018-12-09T18:42:00.101Z,104.30
2018-12-09T18:44:28.784Z,120.97
2018-12-09T18:46:57.176Z,103.57
2018-12-09T18:49:25.652Z,159.70
2018-12-09T18:51:54.333Z,94.13
2018-12-09T18:54:22.716Z,118.17
2018-12-09T18:56:52.150Z,264.43
2018-12-09T18:59:20.736Z,163.23
2018-12-09T19:01:49.225Z,293.87
2018-12-09T19:04:17.643Z,401.20
2018-12-09T19:06:46.393Z,296.67
2018-12-09T19:09:14.864Z,273.93
2018-12-09T19:11:43.765Z,259.00
2018-12-09T19:14:12.445Z,283.40
2018-12-09T19:16:40.926Z,296.60
2018-12-09T19:19:09.420Z,280.03
2018-12-09T19:21:38.106Z,325.63
2018-12-09T19:24:07.093Z,311.77
2018-12-09T19:26:35.575Z,297.70
2018-12-09T19:29:04.261Z,244.60
2018-12-09T19:31:32.743Z,301.03
2018-12-09T19:34:01.211Z,325.77
2018-12-09T19:36:29.798Z,411.77
2018-12-09T19:38:58.185Z,397.87
2018-12-09T19:41:26.561Z,462.67
2018-12-09T19:43:55.271Z,382.07
2018-12-09T19:46:23.657Z,389.33
2018-12-09T19:48:52.127Z,394.83
2018-12-09T19:51:20.811Z,362.30
2018-12-09T19:53:49.252Z,376.20
2018-12-09T19:56:17.668Z,316.17
2018-12-09T19:58:46.084Z,321.70
2018-12-09T20:01:14.634Z,289.30
2018-12-09T20:03:43.084Z,307.53
2018-12-09T20:06:11.580Z,289.33
2018-12-09T20:08:39.984Z,301.50
2018-12-09T20:11:08.397Z,283.87
2018-12-09T20:13:37.144Z,320.30
2018-12-09T20:16:05.523Z,355.90
2018-12-09T20:18:33.996Z,358.53
2018-12-09T20:21:02.489Z,310.00
2018-12-09T20:23:30.868Z,283.67
2018-12-09T20:25:59.279Z,299.00
2018-12-09T20:28:28.232Z,317.73
2018-12-09T20:30:56.613Z,330.90
2018-12-09T20:33:26.082Z,323.33
2018-12-09T20:35:55.212Z,321.20
2018-12-09T20:38:23.696Z,321.10
2018-12-09T20:40:52.124Z,330.97
2018-12-09T20:43:20.752Z,331.43
2018-12-09T20:45:49.912Z,309.23
2018-12-09T20:48:18.532Z,276.03
2018-12-09T20:51:07.945Z,347.77
2018-12-09T20:56:42.817Z,335.10
2018-12-09T20:59:11.340Z,316.97
2018-12-09T21:01:39.825Z,339.27
2018-12-09T21:04:08.306Z,313.53
2018-12-09T21:06:36.784Z,384.27
2018-12-09T21:09:06.762Z,270.27
2018-12-09T21:11:35.272Z,193.73
2018-12-09T21:14:03.756Z,157.03
2018-12-09T21:16:32.244Z,142.27
2018-12-09T21:19:00.937Z,105.90
2018-12-09T21:21:29.325Z,139.43
2018-12-09T21:23:57.787Z,224.07
2018-12-09T21:26:26.378Z,165.00
2018-12-09T21:28:54.758Z,137.67
2018-12-09T21:31:23.223Z,196.63
2018-12-09T21:33:51.816Z,189.70
2018-12-09T21:36:20.236Z,148.30
2018-12-09T21:38:48.617Z,106.83
2018-12-09T21:41:17.019Z,154.97
2018-12-09T21:43:45.467Z,121.70
2018-12-09T21:46:13.845Z,136.37
2018-12-09T21:48:42.345Z,113.03
2018-12-09T21:51:10.768Z,90.30
2018-12-09T21:53:39.248Z,89.73
2018-12-09T21:56:07.937Z,79.17
2018-12-09T21:58:36.331Z,92.30
2018-12-09T22:01:04.736Z,118.57
2018-12-09T22:03:33.371Z,146.67
2018-12-09T22:06:01.857Z,158.60
2018-12-09T22:08:30.349Z,147.77
2018-12-09T22:10:58.896Z,148.43
2018-12-09T22:13:27.413Z,159.97
2018-12-09T22:15:55.889Z,144.87
2018-12-09T22:18:24.472Z,134.67
2018-12-09T22:20:52.844Z,136.60
2018-12-09T22:23:21.268Z,140.70
2018-12-09T22:25:50.017Z,130.77
2018-12-09T22:28:18.495Z,128.50
2018-12-09T22:30:46.884Z,139.80
2018-12-09T22:33:15.413Z,119.77
2018-12-09T22:35:43.775Z,98.20
2018-12-09T22:38:12.217Z,87.63
2018-12-09T22:40:41.103Z,102.03
2018-12-09T22:43:09.585Z,90.17
2018-12-09T22:45:38.060Z,106.03
2018-12-09T22:48:06.748Z,114.60
2018-12-09T22:50:35.235Z,106.73
2018-12-09T22:53:03.716Z,90.77
2018-12-09T22:55:32.497Z,104.17
2018-12-09T22:58:00.893Z,87.43
2018-12-09T23:00:29.356Z,79.80
2018-12-09T23:03:03.777Z,79.53
2018-12-09T23:05:32.259Z,92.43
2018-12-09T23:08:00.736Z,94.17
2018-12-09T23:10:29.421Z,99.47
2018-12-09T23:12:57.812Z,98.53
2018-12-09T23:15:26.280Z,95.60
2018-12-09T23:17:55.070Z,82.30
2018-12-09T23:20:23.547Z,85.93
2018-12-09T23:22:52.027Z,79.17
2018-12-09T23:25:20.521Z,91.63
2018-12-09T23:27:48.997Z,114.93
2018-12-09T23:30:17.371Z,220.93
2018-12-09T23:32:46.164Z,197.70
2018-12-09T23:35:14.649Z,234.43
2018-12-09T23:37:43.068Z,240.77
2018-12-09T23:40:11.608Z,185.93
2018-12-09T23:42:40.095Z,173.77
2018-12-09T23:45:08.567Z,108.37
2018-12-09T23:47:37.044Z,156.07
2018-12-09T23:50:05.768Z,193.37
2018-12-09T23:52:34.220Z,76.50
2018-12-09T23:55:02.791Z,72.97
2018-12-09T23:57:31.159Z,76.30
2018-12-09T23:59:59.655Z,62.87
